createdAt,value
2023-11-27T00:02:16.728Z,61.35
2023-11-27T00:04:45.277Z,61.09
2023-11-27T00:07:13.349Z,60.39
2023-11-27T00:09:41.364Z,61.07
2023-11-27T00:12:10.530Z,60.97
2023-11-27T00:14:39.983Z,60.47
2023-11-27T00:17:08.333Z,60.90
2023-11-27T00:19:36.478Z,61.20
2023-11-27T00:22:04.855Z,60.77
2023-11-27T00:24:32.828Z,61.72
2023-11-27T00:27:00.778Z,61.46
2023-11-27T00:29:29.568Z,60.75
2023-11-27T00:31:59.456Z,61.43
2023-11-27T00:34:27.412Z,61.50
2023-11-27T00:36:55.340Z,60.80
2023-11-27T00:39:23.349Z,61.23
2023-11-27T00:41:51.273Z,61.91
2023-11-27T00:44:19.228Z,60.94
2023-11-27T00:46:48.784Z,61.54
2023-11-27T00:49:19.910Z,60.71
2023-11-27T00:51:47.933Z,61.78
2023-11-27T00:54:15.878Z,60.93
2023-11-27T00:56:43.777Z,61.46
2023-11-27T00:59:11.723Z,61.53
2023-11-27T01:01:40.158Z,60.51
2023-11-27T01:04:08.385Z,61.56
2023-11-27T01:06:37.671Z,61.61
2023-11-27T01:09:07.646Z,61.66
2023-11-27T01:11:35.537Z,61.04
2023-11-27T01:14:03.543Z,61.44
2023-11-27T01:16:31.682Z,61.48
2023-11-27T01:18:59.880Z,60.88
2023-11-27T01:21:27.993Z,60.71
2023-11-27T01:23:57.597Z,60.68
2023-11-27T01:26:26.249Z,60.64
2023-11-27T01:28:54.408Z,60.83
2023-11-27T01:31:23.122Z,60.63
2023-11-27T01:33:52.269Z,60.89
2023-11-27T01:36:20.330Z,60.45
2023-11-27T01:38:48.298Z,61.55
2023-11-27T01:41:17.524Z,60.75
2023-11-27T01:43:46.299Z,61.80
2023-11-27T01:46:24.550Z,61.67
2023-11-27T01:48:54.399Z,61.54
2023-11-27T01:51:23.731Z,61.76
2023-11-27T01:53:53.079Z,61.51
2023-11-27T01:56:25.414Z,61.33
2023-11-27T01:58:58.178Z,61.14
2023-11-27T02:01:27.183Z,61.25
2023-11-27T02:03:55.584Z,61.08
2023-11-27T02:06:23.845Z,61.60
2023-11-27T02:08:51.846Z,61.22
2023-11-27T02:11:20.618Z,61.12
2023-11-27T02:13:50.524Z,61.88
2023-11-27T02:16:18.885Z,61.52
2023-11-27T02:18:47.402Z,61.60
2023-11-27T02:21:15.359Z,61.48
2023-11-27T02:23:44.662Z,62.06
2023-11-27T02:26:12.643Z,62.73
2023-11-27T02:28:41.329Z,62.20
2023-11-27T02:31:09.537Z,62.42
2023-11-27T02:33:39.630Z,61.79
2023-11-27T02:36:08.037Z,62.19
2023-11-27T02:38:37.194Z,61.36
2023-11-27T02:41:07.482Z,61.36
2023-11-27T02:43:36.775Z,61.35
2023-11-27T02:46:04.932Z,61.85
2023-11-27T02:48:33.128Z,61.38
2023-11-27T02:51:01.053Z,61.50
2023-11-27T02:53:29.402Z,62.03
2023-11-27T02:55:57.328Z,62.24
2023-11-27T02:58:26.786Z,62.47
2023-11-27T03:00:54.771Z,61.65
2023-11-27T03:03:22.828Z,61.42
2023-11-27T03:05:51.771Z,61.41
2023-11-27T03:08:19.918Z,61.70
2023-11-27T03:10:48.143Z,61.94
2023-11-27T03:13:16.238Z,61.73
2023-11-27T03:15:45.753Z,61.74
2023-11-27T03:18:15.038Z,61.38
2023-11-27T03:20:42.979Z,60.61
2023-11-27T03:23:11.012Z,60.67
2023-11-27T03:25:38.960Z,61.16
2023-11-27T03:28:08.276Z,61.47
2023-11-27T03:30:36.285Z,61.88
2023-11-27T03:33:05.601Z,60.99
2023-11-27T03:35:33.597Z,61.92
2023-11-27T03:38:01.640Z,60.92
2023-11-27T03:40:29.575Z,61.10
2023-11-27T03:42:58.874Z,61.04
2023-11-27T03:45:27.080Z,61.12
2023-11-27T03:47:55.046Z,62.54
2023-11-27T03:50:25.528Z,62.36
2023-11-27T03:52:55.581Z,62.28
2023-11-27T03:55:23.953Z,63.24
2023-11-27T03:57:51.990Z,61.20
2023-11-27T04:00:20.734Z,62.06
2023-11-27T04:02:48.921Z,61.34
2023-11-27T04:05:18.062Z,60.67
2023-11-27T04:07:47.349Z,60.71
2023-11-27T04:10:17.382Z,61.45
2023-11-27T04:12:46.387Z,62.68
2023-11-27T04:15:17.509Z,63.40
2023-11-27T04:17:45.757Z,63.43
2023-11-27T04:20:15.784Z,63.75
2023-11-27T04:22:44.084Z,64.69
2023-11-27T04:25:13.538Z,65.87
2023-11-27T04:27:41.518Z,66.31
2023-11-27T04:30:10.227Z,66.13
2023-11-27T04:32:39.060Z,65.40
2023-11-27T04:35:07.413Z,64.53
2023-11-27T04:37:35.871Z,63.72
2023-11-27T04:40:03.771Z,62.91
2023-11-27T04:42:34.444Z,62.80
2023-11-27T04:45:02.681Z,62.48
2023-11-27T04:47:30.623Z,62.52
2023-11-27T04:49:58.539Z,63.01
2023-11-27T04:52:26.502Z,61.52
2023-11-27T04:54:54.434Z,61.57
2023-11-27T04:57:22.655Z,61.01
2023-11-27T04:59:51.995Z,60.70
2023-11-27T05:02:20.146Z,60.43
2023-11-27T05:04:48.206Z,60.17
2023-11-27T05:07:16.194Z,59.80
2023-11-27T05:09:44.138Z,59.23
2023-11-27T05:12:17.769Z,59.47
2023-11-27T05:14:53.555Z,59.51
2023-11-27T05:17:21.563Z,59.59
2023-11-27T05:19:49.717Z,59.42
2023-11-27T05:22:17.712Z,59.39
2023-11-27T05:24:45.612Z,58.95
2023-11-27T05:27:13.622Z,58.97
2023-11-27T05:29:41.579Z,58.80
2023-11-27T05:32:10.869Z,59.58
2023-11-27T05:34:38.949Z,60.47
2023-11-27T05:37:09.065Z,60.47
2023-11-27T05:39:38.480Z,59.84
2023-11-27T05:42:07.005Z,60.25
2023-11-27T05:44:35.506Z,60.14
2023-11-27T05:47:03.471Z,60.07
2023-11-27T05:49:33.099Z,60.12
2023-11-27T05:52:01.358Z,60.23
2023-11-27T05:54:29.507Z,60.00
2023-11-27T05:56:57.465Z,60.15
2023-11-27T05:59:25.442Z,60.64
2023-11-27T06:01:54.197Z,60.35
2023-11-27T06:04:22.269Z,61.12
2023-11-27T06:06:51.500Z,61.37
2023-11-27T06:09:19.749Z,60.51
2023-11-27T06:11:47.813Z,60.00
2023-11-27T06:14:15.807Z,59.76
2023-11-27T06:16:44.103Z,59.42
2023-11-27T06:19:12.270Z,59.75
2023-11-27T06:21:40.229Z,59.75
2023-11-27T06:24:10.362Z,60.49
2023-11-27T06:26:38.266Z,60.10
2023-11-27T06:29:06.333Z,60.13
2023-11-27T06:31:34.608Z,59.82
2023-11-27T06:34:02.751Z,58.59
2023-11-27T06:36:30.861Z,58.88
2023-11-27T06:38:58.945Z,59.00
2023-11-27T06:41:28.344Z,59.46
2023-11-27T06:43:57.143Z,59.89
2023-11-27T06:46:25.206Z,59.94
2023-11-27T06:48:53.290Z,59.57
2023-11-27T06:51:21.339Z,59.36
2023-11-27T06:53:49.363Z,59.12
2023-11-27T06:56:17.318Z,59.52
2023-11-27T06:58:46.643Z,59.67
2023-11-27T07:01:14.729Z,59.69
2023-11-27T07:03:42.741Z,59.66
2023-11-27T07:06:11.517Z,60.26
2023-11-27T07:08:39.484Z,59.83
2023-11-27T07:11:10.043Z,59.79
2023-11-27T07:13:37.987Z,59.46
2023-11-27T07:16:08.456Z,59.28
2023-11-27T07:18:36.557Z,59.18
2023-11-27T07:21:04.862Z,59.77
2023-11-27T07:23:33.345Z,59.75
2023-11-27T07:26:01.320Z,60.08
2023-11-27T07:28:29.337Z,58.19
2023-11-27T07:30:57.521Z,58.19
2023-11-27T07:33:27.600Z,57.37
2023-11-27T07:35:55.557Z,57.28
2023-11-27T07:38:23.516Z,57.63
2023-11-27T07:40:51.782Z,55.63
2023-11-27T07:43:20.138Z,54.64
2023-11-27T07:45:48.083Z,58.51
2023-11-27T07:48:16.197Z,57.54
2023-11-27T07:50:45.472Z,52.89
2023-11-27T07:53:13.436Z,48.38
2023-11-27T07:55:41.980Z,45.30
2023-11-27T07:58:10.124Z,42.72
2023-11-27T08:00:38.136Z,40.71
2023-11-27T08:03:06.080Z,39.04
2023-11-27T08:05:34.264Z,37.10
2023-11-27T08:08:03.732Z,36.62
2023-11-27T08:10:31.914Z,35.79
2023-11-27T08:13:00.010Z,35.04
2023-11-27T08:15:27.978Z,35.86
2023-11-27T08:17:57.677Z,35.51
2023-11-27T08:20:29.627Z,35.03
2023-11-27T08:22:59.433Z,34.77
2023-11-27T08:25:29.592Z,35.34
2023-11-27T08:27:58.747Z,34.62
2023-11-27T08:30:29.408Z,35.58
2023-11-27T08:32:58.612Z,36.25
2023-11-27T08:35:26.627Z,35.49
2023-11-27T08:37:54.836Z,36.40
2023-11-27T08:40:22.897Z,37.07
2023-11-27T08:42:52.212Z,36.73
2023-11-27T08:45:20.900Z,35.93
2023-11-27T08:47:52.566Z,36.55
2023-11-27T08:50:25.669Z,35.96
2023-11-27T08:52:58.070Z,35.91
2023-11-27T08:55:29.779Z,35.39
2023-11-27T08:58:02.186Z,35.34
2023-11-27T09:00:30.603Z,35.31
2023-11-27T09:03:01.044Z,35.91
2023-11-27T09:05:32.475Z,35.29
2023-11-27T09:08:07.966Z,33.84
2023-11-27T09:10:37.474Z,32.78
2023-11-27T09:13:08.042Z,33.93
2023-11-27T09:15:36.758Z,32.81
2023-11-27T09:18:04.983Z,30.74
2023-11-27T09:20:33.080Z,30.36
2023-11-27T09:23:01.687Z,29.92
2023-11-27T09:25:29.731Z,29.92
2023-11-27T09:27:58.347Z,29.77
2023-11-27T09:30:27.722Z,30.38
2023-11-27T09:32:56.293Z,30.22
2023-11-27T09:35:24.908Z,29.80
2023-11-27T09:37:52.871Z,30.67
2023-11-27T09:40:22.848Z,30.03
2023-11-27T09:42:52.044Z,29.92
2023-11-27T09:45:21.432Z,30.70
2023-11-27T09:47:52.722Z,30.88
2023-11-27T09:50:23.457Z,32.54
2023-11-27T09:52:54.570Z,32.94
2023-11-27T09:55:23.113Z,33.12
2023-11-27T09:57:51.666Z,33.11
2023-11-27T10:00:23.498Z,33.15
2023-11-27T10:02:53.470Z,33.95
2023-11-27T10:05:23.647Z,34.74
2023-11-27T10:07:54.575Z,35.18
2023-11-27T10:10:27.411Z,35.44
2023-11-27T10:13:02.115Z,36.07
2023-11-27T10:15:32.761Z,35.77
2023-11-27T10:18:06.063Z,35.50
2023-11-27T10:20:36.414Z,35.85
2023-11-27T10:23:06.554Z,36.10
2023-11-27T10:25:35.642Z,35.88
2023-11-27T10:28:04.092Z,36.74
2023-11-27T10:30:32.215Z,37.16
2023-11-27T10:33:02.531Z,37.25
2023-11-27T10:35:33.557Z,37.28
2023-11-27T10:38:02.753Z,38.24
2023-11-27T10:40:30.945Z,37.78
2023-11-27T10:43:01.752Z,38.68
2023-11-27T10:45:31.219Z,38.71
2023-11-27T10:48:04.734Z,38.29
2023-11-27T10:50:34.137Z,39.13
2023-11-27T10:53:02.650Z,38.79
2023-11-27T10:55:32.926Z,39.11
2023-11-27T10:58:01.867Z,39.73
2023-11-27T11:00:33.931Z,39.74
2023-11-27T11:03:08.300Z,39.84
2023-11-27T11:05:46.594Z,40.74
2023-11-27T11:08:15.072Z,40.73
2023-11-27T11:10:43.667Z,39.91
2023-11-27T11:13:14.840Z,41.52
2023-11-27T11:15:52.333Z,42.07
2023-11-27T11:18:35.989Z,42.48
2023-11-27T11:21:34.654Z,43.42
2023-11-27T11:24:16.408Z,44.84
2023-11-27T11:26:59.724Z,47.18
2023-11-27T11:29:34.560Z,48.34
2023-11-27T11:32:06.088Z,49.51
2023-11-27T11:34:40.642Z,49.40
2023-11-27T11:37:13.703Z,49.29
2023-11-27T11:39:46.968Z,50.67
2023-11-27T11:42:18.980Z,50.64
2023-11-27T11:45:15.429Z,50.21
2023-11-27T11:47:43.634Z,49.51
2023-11-27T11:50:28.480Z,48.99
2023-11-27T11:52:58.983Z,48.07
2023-11-27T11:55:33.019Z,48.28
2023-11-27T11:58:05.474Z,47.82
2023-11-27T12:00:45.402Z,50.74
2023-11-27T12:03:17.863Z,47.97
2023-11-27T12:05:51.323Z,45.50
2023-11-27T12:08:20.005Z,43.28
2023-11-27T12:10:48.459Z,42.40
2023-11-27T12:13:16.906Z,42.44
2023-11-27T12:15:44.871Z,43.68
2023-11-27T12:18:14.459Z,41.75
2023-11-27T12:20:44.146Z,41.16
2023-11-27T12:23:14.638Z,42.05
2023-11-27T12:25:43.352Z,42.25
2023-11-27T12:28:11.880Z,40.71
2023-11-27T12:30:41.572Z,41.04
2023-11-27T12:33:10.927Z,41.78
2023-11-27T12:35:39.845Z,42.53
2023-11-27T12:38:09.329Z,42.51
2023-11-27T12:40:38.682Z,43.27
2023-11-27T12:43:08.782Z,42.83
2023-11-27T12:45:38.187Z,42.41
2023-11-27T12:48:09.084Z,43.60
2023-11-27T12:50:41.090Z,42.98
2023-11-27T12:53:10.623Z,43.02
2023-11-27T12:55:50.302Z,43.08
2023-11-27T12:58:21.812Z,44.06
2023-11-27T13:00:52.610Z,42.37
2023-11-27T13:03:22.605Z,43.54
2023-11-27T13:05:54.406Z,43.50
2023-11-27T13:08:25.810Z,45.21
2023-11-27T13:10:58.817Z,46.04
2023-11-27T13:13:27.490Z,45.98
2023-11-27T13:15:59.605Z,45.61
2023-11-27T13:18:31.454Z,45.20
2023-11-27T13:20:59.777Z,45.38
2023-11-27T13:23:28.310Z,46.31
2023-11-27T13:26:11.142Z,45.87
2023-11-27T13:28:43.690Z,46.72
2023-11-27T13:31:13.986Z,46.46
2023-11-27T13:33:42.022Z,46.90
2023-11-27T13:36:19.114Z,48.47
2023-11-27T13:38:47.395Z,52.63
2023-11-27T13:41:16.884Z,54.78
2023-11-27T13:43:45.540Z,55.31
2023-11-27T13:46:13.632Z,54.78
2023-11-27T13:48:42.144Z,55.50
2023-11-27T13:51:15.203Z,55.65
2023-11-27T13:53:43.367Z,56.15
2023-11-27T13:56:19.567Z,55.92
2023-11-27T13:58:53.366Z,55.90
2023-11-27T14:01:22.481Z,55.57
2023-11-27T14:03:50.867Z,57.31
2023-11-27T14:06:20.321Z,57.43
2023-11-27T14:08:53.235Z,57.03
2023-11-27T14:11:32.321Z,57.62
2023-11-27T14:14:11.030Z,57.22
2023-11-27T14:16:45.864Z,57.90
2023-11-27T14:19:46.674Z,58.66
2023-11-27T14:22:37.615Z,58.41
2023-11-27T14:25:26.882Z,59.22
2023-11-27T14:28:12.825Z,60.35
2023-11-27T14:30:42.223Z,59.91
2023-11-27T14:33:11.048Z,59.51
2023-11-27T14:35:39.058Z,59.64
2023-11-27T14:38:07.358Z,59.27
2023-11-27T14:40:35.951Z,60.22
2023-11-27T14:43:03.909Z,60.93
2023-11-27T14:45:32.912Z,61.43
2023-11-27T14:48:02.307Z,61.17
2023-11-27T14:50:33.660Z,61.21
2023-11-27T14:53:02.122Z,62.06
2023-11-27T14:55:34.172Z,61.26
2023-11-27T14:58:02.439Z,60.86
2023-11-27T15:00:32.176Z,60.34
2023-11-27T15:03:02.239Z,61.07
2023-11-27T15:05:30.675Z,63.10
2023-11-27T15:08:00.522Z,63.60
2023-11-27T15:10:29.254Z,62.32
2023-11-27T15:12:57.267Z,64.13
2023-11-27T15:15:27.605Z,64.62
2023-11-27T15:17:55.817Z,63.30
2023-11-27T15:20:27.875Z,63.81
2023-11-27T15:22:58.118Z,63.14
2023-11-27T15:25:26.253Z,64.08
2023-11-27T15:27:55.258Z,63.71
2023-11-27T15:30:25.349Z,62.63
2023-11-27T15:32:53.295Z,62.24
2023-11-27T15:35:22.639Z,63.12
2023-11-27T15:37:52.454Z,63.45
2023-11-27T15:40:22.563Z,63.41
2023-11-27T15:42:50.545Z,64.11
2023-11-27T15:45:18.613Z,63.73
2023-11-27T15:47:46.798Z,64.39
2023-11-27T15:50:15.476Z,63.08
2023-11-27T15:52:46.734Z,65.35
2023-11-27T15:55:16.433Z,66.13
2023-11-27T15:57:45.878Z,65.61
2023-11-27T16:00:15.814Z,65.10
2023-11-27T16:02:44.054Z,64.97
2023-11-27T16:05:12.394Z,64.29
2023-11-27T16:07:41.257Z,63.79
2023-11-27T16:10:14.838Z,64.06
2023-11-27T16:12:44.943Z,63.47
2023-11-27T16:15:15.755Z,63.02
2023-11-27T16:20:18.372Z,61.98
2023-11-27T16:22:46.937Z,60.91
2023-11-27T16:25:17.369Z,61.09
2023-11-27T16:27:47.775Z,60.52
2023-11-27T16:30:22.125Z,59.67
2023-11-27T16:32:51.229Z,60.52
2023-11-27T16:35:23.331Z,60.06
2023-11-27T16:37:52.905Z,60.15
2023-11-27T16:40:22.160Z,59.69
2023-11-27T16:42:54.349Z,58.19
2023-11-27T16:45:24.501Z,58.85
2023-11-27T16:47:53.330Z,59.34
2023-11-27T16:50:25.825Z,58.57
2023-11-27T16:52:56.086Z,58.25
2023-11-27T16:55:26.424Z,56.12
2023-11-27T16:58:00.597Z,55.92
2023-11-27T17:00:32.769Z,55.14
2023-11-27T17:03:04.883Z,54.77
2023-11-27T17:05:34.660Z,54.71
2023-11-27T17:08:04.411Z,54.41
2023-11-27T17:10:40.604Z,53.81
2023-11-27T17:13:12.031Z,52.50
2023-11-27T17:15:44.489Z,51.89
2023-11-27T17:18:13.751Z,52.10
2023-11-27T17:20:42.786Z,52.75
2023-11-27T17:23:12.476Z,53.61
2023-11-27T17:25:41.455Z,54.04
2023-11-27T17:28:13.161Z,55.10
2023-11-27T17:30:44.337Z,55.45
2023-11-27T17:33:13.606Z,56.33
2023-11-27T17:35:41.559Z,56.87
2023-11-27T17:38:10.240Z,57.57
2023-11-27T17:40:38.985Z,58.39
2023-11-27T17:43:07.630Z,58.25
2023-11-27T17:45:42.777Z,59.52
2023-11-27T17:48:11.601Z,59.96
2023-11-27T17:50:39.673Z,60.42
2023-11-27T17:53:08.539Z,60.22
2023-11-27T17:55:45.174Z,61.29
2023-11-27T17:58:16.914Z,61.31
2023-11-27T18:00:47.793Z,61.66
2023-11-27T18:03:18.359Z,61.70
2023-11-27T18:05:46.443Z,61.89
2023-11-27T18:08:14.600Z,62.45
2023-11-27T18:10:42.707Z,62.79
2023-11-27T18:13:11.541Z,62.38
2023-11-27T18:15:39.600Z,62.36
2023-11-27T18:18:08.963Z,63.20
2023-11-27T18:20:37.701Z,63.84
2023-11-27T18:23:06.201Z,63.24
2023-11-27T18:25:34.905Z,63.49
2023-11-27T18:28:04.832Z,63.75
2023-11-27T18:30:33.118Z,64.20
2023-11-27T18:33:01.427Z,63.21
2023-11-27T18:35:30.914Z,64.41
2023-11-27T18:37:59.097Z,63.96
2023-11-27T18:40:28.308Z,63.93
2023-11-27T18:42:56.330Z,63.82
2023-11-27T18:45:24.807Z,65.16
2023-11-27T18:47:53.242Z,65.37
2023-11-27T18:50:21.468Z,64.79
2023-11-27T18:52:50.826Z,65.10
2023-11-27T18:55:19.994Z,65.45
2023-11-27T18:57:51.330Z,65.16
2023-11-27T19:00:22.543Z,64.18
2023-11-27T19:02:50.728Z,64.31
2023-11-27T19:05:18.758Z,65.48
2023-11-27T19:07:48.496Z,63.95
2023-11-27T19:10:19.284Z,64.52
2023-11-27T19:12:47.278Z,64.22
2023-11-27T19:15:15.979Z,64.54
2023-11-27T19:17:44.088Z,65.06
2023-11-27T19:20:12.699Z,64.88
2023-11-27T19:22:41.043Z,65.04
2023-11-27T19:25:11.664Z,65.18
2023-11-27T19:27:41.544Z,65.46
2023-11-27T19:30:10.994Z,66.21
2023-11-27T19:32:40.752Z,67.01
2023-11-27T19:35:10.981Z,66.83
2023-11-27T19:37:39.298Z,67.27
2023-11-27T19:40:09.663Z,67.13
2023-11-27T19:42:37.750Z,67.06
2023-11-27T19:45:10.005Z,66.75
2023-11-27T19:47:38.401Z,67.62
2023-11-27T19:50:09.767Z,66.97
2023-11-27T19:52:37.947Z,67.57
2023-11-27T19:55:07.764Z,66.89
2023-11-27T19:57:35.941Z,67.03
2023-11-27T20:00:04.498Z,67.57
2023-11-27T20:02:39.991Z,67.37
2023-11-27T20:05:09.728Z,67.30
2023-11-27T20:07:38.253Z,66.97
2023-11-27T20:10:09.305Z,66.75
2023-11-27T20:12:37.339Z,67.27
2023-11-27T20:15:06.218Z,67.19
2023-11-27T20:17:35.210Z,66.81
2023-11-27T20:20:05.326Z,67.62
2023-11-27T20:22:33.685Z,67.18
2023-11-27T20:25:01.622Z,67.04
2023-11-27T20:27:30.022Z,66.41
2023-11-27T20:29:58.089Z,66.92
2023-11-27T20:32:26.351Z,66.48
2023-11-27T20:34:54.318Z,66.63
2023-11-27T20:37:25.027Z,67.47
2023-11-27T20:39:53.985Z,67.58
2023-11-27T20:42:22.045Z,66.68
2023-11-27T20:44:54.332Z,66.93
2023-11-27T20:47:24.833Z,66.53
2023-11-27T20:49:55.850Z,67.27
2023-11-27T20:52:26.038Z,66.94
2023-11-27T20:54:56.044Z,66.33
2023-11-27T20:57:24.057Z,67.39
2023-11-27T20:59:52.696Z,66.59
2023-11-27T21:02:20.816Z,67.06
2023-11-27T21:04:48.977Z,67.45
2023-11-27T21:07:18.110Z,68.20
2023-11-27T21:09:47.436Z,68.15
2023-11-27T21:12:15.461Z,67.12
2023-11-27T21:14:43.526Z,66.92
2023-11-27T21:17:11.564Z,67.71
2023-11-27T21:19:39.911Z,67.47
2023-11-27T21:22:08.089Z,66.87
2023-11-27T21:24:36.349Z,68.03
2023-11-27T21:27:09.783Z,67.93
2023-11-27T21:29:37.936Z,68.74
2023-11-27T21:32:06.657Z,69.19
2023-11-27T21:34:34.805Z,68.95
2023-11-27T21:37:02.760Z,68.76
2023-11-27T21:39:30.778Z,68.79
2023-11-27T21:41:58.914Z,69.11
2023-11-27T21:44:28.771Z,68.08
2023-11-27T21:46:56.880Z,68.34
2023-11-27T21:49:26.101Z,68.48
2023-11-27T21:51:56.157Z,69.59
2023-11-27T21:54:24.395Z,68.67
2023-11-27T21:56:52.516Z,69.14
2023-11-27T21:59:20.601Z,68.74
2023-11-27T22:01:50.298Z,68.81
2023-11-27T22:04:18.672Z,68.85
2023-11-27T22:06:47.594Z,68.70
2023-11-27T22:09:15.958Z,67.99
2023-11-27T22:11:44.113Z,67.93
2023-11-27T22:14:13.243Z,68.14
2023-11-27T22:16:41.314Z,67.63
2023-11-27T22:19:10.807Z,69.41
2023-11-27T22:21:38.932Z,68.49
2023-11-27T22:24:07.713Z,68.50
2023-11-27T22:26:41.501Z,68.57
2023-11-27T22:29:09.564Z,68.46
2023-11-27T22:31:37.563Z,68.33
2023-11-27T22:34:05.717Z,68.24
2023-11-27T22:36:34.962Z,67.78
2023-11-27T22:39:03.413Z,68.63
2023-11-27T22:41:31.301Z,68.71
2023-11-27T22:43:59.363Z,68.77
2023-11-27T22:46:29.215Z,68.62
2023-11-27T22:48:57.363Z,67.84
2023-11-27T22:51:25.351Z,67.78
2023-11-27T22:53:54.650Z,67.97
2023-11-27T22:56:22.601Z,68.60
2023-11-27T22:58:51.324Z,68.32
2023-11-27T23:01:20.883Z,68.66
2023-11-27T23:03:48.938Z,68.45
2023-11-27T23:06:25.494Z,69.06
2023-11-27T23:09:03.688Z,68.24
2023-11-27T23:11:31.659Z,69.25
2023-11-27T23:13:59.758Z,69.46
2023-11-27T23:16:28.937Z,69.09
2023-11-27T23:18:56.858Z,68.60
2023-11-27T23:21:24.954Z,69.04
2023-11-27T23:23:52.888Z,69.03
2023-11-27T23:26:22.494Z,68.79
2023-11-27T23:28:50.476Z,68.05
2023-11-27T23:31:18.411Z,68.66
2023-11-27T23:33:46.359Z,68.20
2023-11-27T23:36:14.314Z,68.83
2023-11-27T23:38:42.307Z,68.43
2023-11-27T23:41:10.330Z,68.77
2023-11-27T23:43:39.603Z,69.11
2023-11-27T23:46:08.147Z,67.90
2023-11-27T23:48:36.224Z,67.91
2023-11-27T23:51:04.252Z,67.85
2023-11-27T23:53:32.190Z,67.98
2023-11-27T23:56:00.238Z,68.00
2023-11-27T23:58:30.698Z,68.34
